Time;durP1;ratioP1;P1;durP2;ratioP2;P2;SDS_P1;SDS_P2;PMS_P1;PMS_P2;Temp;Humidity;BMP_temperature;BMP_pressure;BME280_temperature;BME280_humidity;BME280_pressure;Samples;Min_cycle;Max_cycle;Signal;HPM_P1;HPM_P2
2024/01/16 00:02:00;;;;;;;0.98;0.90;;;-0.50;99.90;;;;;;5081222;28;20059;-78
2024/01/16 00:04:29;;;;;;;0.20;0.20;;;-0.50;99.90;;;;;;5082557;28;20032;-77
2024/01/16 00:06:56;;;;;;;6.22;0.88;;;-0.60;99.90;;;;;;5068643;28;20021;-78
2024/01/16 00:09:23;;;;;;;1.40;1.13;;;-0.60;99.90;;;;;;5085701;28;20028;-78
2024/01/16 00:11:49;;;;;;;0.05;0.05;;;-0.60;99.90;;;;;;5084758;28;20032;-79
2024/01/16 00:14:15;;;;;;;0.40;0.40;;;-0.60;99.90;;;;;;5083568;28;20035;-78
2024/01/16 00:16:50;;;;;;;0.30;0.30;;;-0.60;99.90;;;;;;5087932;28;20032;-78
2024/01/16 00:19:16;;;;;;;0.50;0.50;;;-0.60;99.90;;;;;;5088202;28;20040;-78
2024/01/16 00:21:47;;;;;;;0.30;0.30;;;-0.60;99.90;;;;;;5086194;28;20028;-77
2024/01/16 00:24:14;;;;;;;0.63;0.63;;;-0.70;99.90;;;;;;5084050;28;20042;-78
2024/01/16 00:26:40;;;;;;;2.40;0.93;;;-0.80;99.90;;;;;;5083840;28;20031;-77
2024/01/16 00:29:06;;;;;;;0.20;0.20;;;-0.90;99.90;;;;;;5069450;28;20043;-77
2024/01/16 00:31:33;;;;;;;0.63;0.32;;;-1.00;99.90;;;;;;5081307;28;20476;-79
2024/01/16 00:33:59;;;;;;;0.43;0.43;;;-1.00;99.90;;;;;;5081764;28;20049;-76
2024/01/16 00:36:25;;;;;;;3.42;2.08;;;-1.20;99.90;;;;;;5081316;28;20053;-77
2024/01/16 00:38:51;;;;;;;0.52;0.52;;;-1.20;99.90;;;;;;5082353;28;20049;-77
2024/01/16 00:41:17;;;;;;;0.20;0.20;;;-1.30;99.90;;;;;;5084144;28;20042;-77
2024/01/16 00:43:44;;;;;;;0.88;0.80;;;-1.30;99.90;;;;;;5084001;28;20020;-77
2024/01/16 00:46:10;;;;;;;4.43;1.38;;;-1.30;99.90;;;;;;5078421;28;20037;-79
2024/01/16 00:48:36;;;;;;;3.30;0.95;;;-1.40;99.90;;;;;;5081719;28;20035;-79
2024/01/16 00:51:03;;;;;;;0.25;0.25;;;-1.40;99.90;;;;;;5080871;28;20044;-78
2024/01/16 00:53:29;;;;;;;0.22;0.22;;;-1.40;99.90;;;;;;5082572;28;20219;-78
2024/01/16 00:55:55;;;;;;;0.73;0.50;;;-1.30;99.90;;;;;;5080404;28;20032;-79
2024/01/16 00:58:23;;;;;;;0.35;0.35;;;-1.30;99.90;;;;;;5067039;28;20044;-78
2024/01/16 01:00:49;;;;;;;0.15;0.15;;;-1.20;99.90;;;;;;5064664;28;20044;-78
2024/01/16 01:03:16;;;;;;;0.13;0.13;;;-1.10;99.90;;;;;;5082867;28;20036;-79
2024/01/16 01:05:42;;;;;;;0.32;0.32;;;-1.00;99.90;;;;;;5082306;28;20037;-80
2024/01/16 01:08:08;;;;;;;3.30;1.10;;;-0.90;99.90;;;;;;5079926;28;20043;-79
2024/01/16 01:10:35;;;;;;;0.00;0.00;;;-0.80;99.90;;;;;;5063000;28;20493;-78
2024/01/16 01:13:01;;;;;;;0.00;0.00;;;-0.90;99.90;;;;;;5082588;28;20035;-76
2024/01/16 01:15:27;;;;;;;0.98;0.95;;;-1.00;99.90;;;;;;5083377;28;20035;-79
2024/01/16 01:17:54;;;;;;;0.88;0.88;;;-1.10;99.90;;;;;;5083914;28;20055;-79
2024/01/16 01:20:20;;;;;;;0.15;0.15;;;-1.10;99.90;;;;;;5080056;28;20036;-79
2024/01/16 01:22:46;;;;;;;0.00;0.00;;;-1.00;99.90;;;;;;5080173;28;20032;-79
2024/01/16 01:25:13;;;;;;;0.82;0.82;;;-1.00;99.90;;;;;;5099375;28;20043;-79
2024/01/16 01:27:39;;;;;;;1.20;0.63;;;-1.00;99.90;;;;;;5078443;28;20024;-79
2024/01/16 01:30:09;;;;;;;2.38;1.98;;;-1.00;99.90;;;;;;5086043;28;20043;-78
2024/01/16 01:32:36;;;;;;;7.57;3.72;;;-1.10;99.90;;;;;;5081227;28;20052;-79
2024/01/16 01:35:03;;;;;;;6.93;6.25;;;-1.10;99.90;;;;;;5082722;28;20054;-76
2024/01/16 01:37:29;;;;;;;3.30;3.00;;;-1.10;99.90;;;;;;5081106;28;20055;-77
2024/01/16 01:39:55;;;;;;;18.25;7.28;;;-1.30;99.90;;;;;;5080751;28;20029;-78
2024/01/16 01:42:23;;;;;;;10.32;7.00;;;-1.50;99.90;;;;;;5068299;28;20048;-78
2024/01/16 01:44:49;;;;;;;5.63;4.63;;;-1.60;99.90;;;;;;5080488;28;20045;-79
2024/01/16 01:47:16;;;;;;;4.85;3.95;;;-1.70;99.90;;;;;;5081950;28;20079;-79
2024/01/16 01:49:42;;;;;;;3.85;3.55;;;-1.80;99.90;;;;;;5078620;28;20033;-78
2024/01/16 01:52:10;;;;;;;2.88;2.15;;;-1.90;99.90;;;;;;5079394;28;20132;-78
2024/01/16 01:54:38;;;;;;;2.05;1.95;;;-2.00;99.90;;;;;;5078754;28;20489;-79
2024/01/16 01:57:04;;;;;;;1.27;1.23;;;-2.10;1.00;;;;;;5080574;28;20028;-78
2024/01/16 01:59:31;;;;;;;1.98;1.88;;;-2.20;1.00;;;;;;5079603;28;20041;-77
2024/01/16 02:01:58;;;;;;;1.05;0.68;;;-2.30;1.00;;;;;;5062379;28;20040;-79
2024/01/16 02:04:27;;;;;;;6.63;0.90;;;-2.40;1.00;;;;;;5080571;28;20460;-79
2024/01/16 02:06:54;;;;;;;0.30;0.30;;;-2.40;1.00;;;;;;5081164;28;20059;-78
2024/01/16 02:09:20;;;;;;;1.52;0.68;;;-2.40;1.00;;;;;;5080888;28;20038;-77
2024/01/16 02:11:46;;;;;;;0.80;0.80;;;-2.40;1.00;;;;;;5079450;28;20040;-77
2024/01/16 02:14:12;;;;;;;0.73;0.73;;;-2.30;1.00;;;;;;5082810;28;20036;-77
2024/01/16 02:16:40;;;;;;;0.65;0.65;;;-2.20;1.00;;;;;;5078932;28;20048;-79
2024/01/16 02:19:07;;;;;;;3.85;1.42;;;-2.20;1.00;;;;;;5084483;28;20036;-78
2024/01/16 02:21:41;;;;;;;0.57;0.52;;;-2.20;1.00;;;;;;5077369;28;20028;-77
2024/01/16 02:24:09;;;;;;;2.20;1.30;;;-2.10;1.00;;;;;;5077741;28;20029;-78
2024/01/16 02:26:35;;;;;;;0.80;0.80;;;-2.10;1.00;;;;;;5082617;28;20028;-79
2024/01/16 02:29:03;;;;;;;0.22;0.22;;;-2.10;1.00;;;;;;5081022;28;20047;-78
2024/01/16 02:31:30;;;;;;;0.10;0.10;;;-2.10;1.00;;;;;;5077133;28;20487;-80
2024/01/16 02:33:56;;;;;;;0.35;0.35;;;-2.10;1.00;;;;;;5082111;28;20043;-77
2024/01/16 02:36:22;;;;;;;0.25;0.25;;;-2.20;1.00;;;;;;5081328;28;21007;-79
2024/01/16 02:38:49;;;;;;;1.60;1.50;;;-2.20;1.00;;;;;;5079620;28;20036;-79
2024/01/16 02:41:16;;;;;;;4.68;2.35;;;-2.20;1.00;;;;;;5080145;28;20028;-80
2024/01/16 02:43:42;;;;;;;1.33;0.95;;;-2.20;1.00;;;;;;5081313;28;20047;-80
2024/01/16 02:46:09;;;;;;;0.95;0.40;;;-2.20;1.00;;;;;;5079922;28;20032;-80
2024/01/16 02:48:36;;;;;;;0.88;0.40;;;-2.10;1.00;;;;;;5079189;28;20043;-80
2024/01/16 02:51:03;;;;;;;5.72;1.10;;;-2.20;1.00;;;;;;5081983;28;20059;-81
2024/01/16 02:53:30;;;;;;;0.60;0.60;;;-2.10;1.00;;;;;;5083436;28;20032;-80
2024/01/16 02:55:58;;;;;;;0.45;0.45;;;-2.10;1.00;;;;;;5081535;28;20047;-79
2024/01/16 02:58:28;;;;;;;0.40;0.40;;;-2.10;1.00;;;;;;5079099;28;20240;-81
2024/01/16 03:00:55;;;;;;;0.10;0.10;;;-2.10;1.00;;;;;;5078479;28;20040;-80
2024/01/16 03:03:21;;;;;;;0.70;0.70;;;-2.00;1.00;;;;;;5078029;28;20038;-81
2024/01/16 03:05:48;;;;;;;0.17;0.17;;;-2.00;1.00;;;;;;5079376;28;20055;-77
2024/01/16 03:08:14;;;;;;;1.55;1.27;;;-2.00;1.00;;;;;;5081846;28;20036;-82
2024/01/16 03:10:40;;;;;;;1.60;0.85;;;-2.00;1.00;;;;;;5060532;28;20032;-79
2024/01/16 03:13:06;;;;;;;2.47;2.03;;;-2.10;1.00;;;;;;5078493;28;20055;-76
2024/01/16 03:15:33;;;;;;;0.35;0.35;;;-2.00;1.00;;;;;;5062438;28;20035;-79
2024/01/16 03:18:00;;;;;;;1.08;1.02;;;-2.00;1.00;;;;;;5078189;28;20032;-81
2024/01/16 03:20:27;;;;;;;0.25;0.25;;;-2.10;1.00;;;;;;5063447;28;20039;-81
2024/01/16 03:22:54;;;;;;;0.75;0.75;;;-2.10;1.00;;;;;;5080469;28;20063;-80
2024/01/16 03:25:21;;;;;;;3.92;0.65;;;-2.10;1.00;;;;;;5079841;28;20025;-80
2024/01/16 03:27:47;;;;;;;1.10;1.08;;;-2.10;1.00;;;;;;5078273;28;20039;-80
2024/01/16 03:30:14;;;;;;;3.95;2.05;;;-2.20;1.00;;;;;;5076392;28;20028;-77
2024/01/16 03:32:40;;;;;;;0.05;0.03;;;-2.30;1.00;;;;;;5078945;28;20036;-81
2024/01/16 03:35:07;;;;;;;0.00;0.00;;;-2.30;1.00;;;;;;5079324;28;20481;-79
2024/01/16 03:37:33;;;;;;;1.40;0.95;;;-2.40;1.00;;;;;;5078066;28;20044;-80
2024/01/16 03:40:00;;;;;;;0.63;0.63;;;-2.40;1.00;;;;;;5075638;28;20031;-79
2024/01/16 03:42:26;;;;;;;0.20;0.20;;;-2.50;7.30;;;;;;5081243;28;20059;-81
2024/01/16 03:44:52;;;;;;;0.00;0.00;;;-2.50;26.60;;;;;;5081573;28;20028;-80
2024/01/16 03:47:19;;;;;;;4.50;1.17;;;-2.50;45.00;;;;;;5079224;28;20450;-82
2024/01/16 03:49:45;;;;;;;0.98;0.98;;;-2.40;68.50;;;;;;5078546;28;20035;-80
2024/01/16 03:52:12;;;;;;;1.45;0.80;;;-2.30;83.00;;;;;;5088404;28;20040;-80
2024/01/16 03:54:38;;;;;;;1.65;1.55;;;-2.30;84.60;;;;;;5090608;28;20792;-81
2024/01/16 03:57:04;;;;;;;0.47;0.47;;;-2.20;79.40;;;;;;5082893;28;20033;-81
2024/01/16 03:59:30;;;;;;;2.10;1.80;;;-2.20;62.40;;;;;;5076391;28;20028;-79
2024/01/16 04:01:56;;;;;;;1.30;0.82;;;-2.10;36.30;;;;;;5078665;28;20385;-80
2024/01/16 04:04:22;;;;;;;0.77;0.77;;;-2.10;8.70;;;;;;5077653;28;20036;-80
2024/01/16 04:06:49;;;;;;;0.15;0.15;;;-2.20;1.00;;;;;;5079032;28;20044;-81
2024/01/16 04:09:15;;;;;;;0.05;0.05;;;-2.20;1.00;;;;;;5077199;28;20040;-81
2024/01/16 04:11:41;;;;;;;0.80;0.80;;;-2.30;1.00;;;;;;5075356;28;20037;-81
2024/01/16 04:14:07;;;;;;;0.10;0.10;;;-2.30;1.00;;;;;;5077690;28;20048;-80
2024/01/16 04:16:33;;;;;;;0.50;0.47;;;-2.40;5.40;;;;;;5081892;28;20028;-80
2024/01/16 04:18:59;;;;;;;3.47;2.53;;;-2.50;18.50;;;;;;5079956;28;20369;-81
2024/01/16 04:21:26;;;;;;;1.00;0.82;;;-2.50;32.00;;;;;;5052950;28;20040;-77
2024/01/16 04:23:52;;;;;;;0.55;0.55;;;-2.50;45.80;;;;;;5072048;28;20453;-80
2024/01/16 04:26:18;;;;;;;0.00;0.00;;;-2.60;60.60;;;;;;5072495;28;20036;-81
2024/01/16 04:28:44;;;;;;;0.50;0.25;;;-2.60;84.00;;;;;;5077780;28;20024;-81
2024/01/16 04:31:13;;;;;;;0.08;0.08;;;-2.60;94.60;;;;;;5078120;28;20035;-80
2024/01/16 04:33:40;;;;;;;0.47;0.45;;;-2.60;97.20;;;;;;5080597;28;20090;-80
2024/01/16 04:36:06;;;;;;;3.10;2.28;;;-2.60;94.60;;;;;;5082007;28;20063;-80
2024/01/16 04:38:33;;;;;;;0.00;0.00;;;-2.70;91.80;;;;;;5079355;28;20040;-80
2024/01/16 04:41:04;;;;;;;1.48;1.17;;;-2.70;92.40;;;;;;5063290;28;20043;-82
2024/01/16 04:43:30;;;;;;;;;;;-2.80;96.50;;;;;;5078335;28;20063;-80
2024/01/16 04:45:56;;;;;;;0.20;0.20;;;-2.90;99.90;;;;;;5075876;28;19904;-81
2024/01/16 04:48:22;;;;;;;1.48;1.13;;;-2.90;99.90;;;;;;5084044;28;20417;-81
2024/01/16 04:50:48;;;;;;;1.98;1.85;;;-2.90;99.90;;;;;;5080275;28;20036;-81
2024/01/16 04:53:14;;;;;;;0.75;0.75;;;-2.90;99.90;;;;;;5079729;28;20051;-80
2024/01/16 04:55:41;;;;;;;1.65;1.55;;;-3.00;99.90;;;;;;5080740;28;20043;-79
2024/01/16 04:58:07;;;;;;;0.52;0.52;;;-3.00;99.90;;;;;;5081916;28;20036;-81
2024/01/16 05:00:33;;;;;;;1.75;1.20;;;-3.00;99.90;;;;;;5085099;28;20032;-81
2024/01/16 05:02:59;;;;;;;0.35;0.35;;;-3.00;99.90;;;;;;5085249;28;20037;-81
2024/01/16 05:05:25;;;;;;;4.70;0.85;;;-3.10;99.90;;;;;;5077300;28;20028;-81
2024/01/16 05:07:52;;;;;;;1.48;1.23;;;-3.10;99.90;;;;;;5085430;28;20051;-82
2024/01/16 05:10:18;;;;;;;0.05;0.05;;;-3.20;99.90;;;;;;5080529;28;20041;-81
2024/01/16 05:12:44;;;;;;;1.17;1.17;;;-3.20;99.90;;;;;;5082058;28;20059;-81
2024/01/16 05:15:14;;;;;;;0.65;0.65;;;-3.20;99.90;;;;;;5076182;28;20051;-76
2024/01/16 05:17:40;;;;;;;4.43;0.63;;;-3.20;99.90;;;;;;5080523;28;20063;-81
2024/01/16 05:20:08;;;;;;;0.77;0.70;;;-3.20;99.90;;;;;;5082439;28;20039;-81
2024/01/16 05:22:34;;;;;;;0.98;0.52;;;-3.20;99.90;;;;;;5081052;28;20037;-81
2024/01/16 05:25:00;;;;;;;0.35;0.35;;;-3.20;99.90;;;;;;5080744;28;20036;-82
2024/01/16 05:27:27;;;;;;;0.60;0.60;;;-3.20;99.90;;;;;;5078087;28;20037;-81
2024/01/16 05:29:53;;;;;;;2.15;1.83;;;-3.10;99.90;;;;;;5070399;28;20048;-81
2024/01/16 05:32:19;;;;;;;0.52;0.50;;;-3.10;99.90;;;;;;5085920;28;20032;-79
2024/01/16 05:34:45;;;;;;;0.60;0.60;;;-3.00;99.90;;;;;;5080526;28;20040;-81
2024/01/16 05:37:12;;;;;;;0.57;0.57;;;-3.00;99.90;;;;;;5074988;28;20044;-77
2024/01/16 05:39:38;;;;;;;2.45;1.77;;;-3.10;99.90;;;;;;5083103;28;20031;-81
2024/01/16 05:42:05;;;;;;;0.93;0.90;;;-3.10;99.90;;;;;;5082763;28;20035;-80
2024/01/16 05:44:31;;;;;;;0.20;0.20;;;-3.20;99.90;;;;;;5083198;28;20036;-79
2024/01/16 05:46:57;;;;;;;2.55;1.35;;;-3.20;99.90;;;;;;5080108;28;20060;-80
2024/01/16 05:49:23;;;;;;;0.55;0.55;;;-3.30;99.90;;;;;;5080102;28;20036;-76
2024/01/16 05:51:49;;;;;;;1.80;1.70;;;-3.30;99.90;;;;;;5081469;28;20043;-83
2024/01/16 05:54:15;;;;;;;0.20;0.20;;;-3.30;99.90;;;;;;5079441;28;20040;-84
2024/01/16 05:56:41;;;;;;;1.67;0.85;;;-3.30;99.90;;;;;;5080795;28;20393;-81
2024/01/16 05:59:08;;;;;;;1.70;1.27;;;-3.30;99.90;;;;;;5071544;28;20059;-82
2024/01/16 06:01:34;;;;;;;0.15;0.15;;;-3.40;99.90;;;;;;5061350;28;20040;-83
2024/01/16 06:04:00;;;;;;;0.57;0.57;;;-3.30;99.90;;;;;;5082539;28;20036;-84
2024/01/16 06:06:26;;;;;;;1.10;1.00;;;-3.40;99.90;;;;;;5079597;28;20036;-82
2024/01/16 06:08:52;;;;;;;0.52;0.52;;;-3.40;99.90;;;;;;5079380;28;20040;-82
2024/01/16 06:11:20;;;;;;;0.85;0.85;;;-3.50;99.90;;;;;;5079686;28;20036;-79
2024/01/16 06:13:46;;;;;;;0.30;0.30;;;-3.40;99.90;;;;;;5063306;28;20041;-82
2024/01/16 06:16:12;;;;;;;1.27;1.17;;;-3.40;99.90;;;;;;5086759;28;20032;-81
2024/01/16 06:18:38;;;;;;;0.55;0.55;;;-3.50;99.90;;;;;;5104373;28;20024;-80
2024/01/16 06:21:04;;;;;;;0.55;0.43;;;-3.50;99.90;;;;;;5085811;28;20039;-81
2024/01/16 06:23:31;;;;;;;0.30;0.30;;;-3.60;99.90;;;;;;5082793;28;20051;-80
2024/01/16 06:25:57;;;;;;;5.32;0.57;;;-3.60;99.90;;;;;;5081659;28;20032;-82
2024/01/16 06:28:23;;;;;;;1.85;1.65;;;-3.70;99.90;;;;;;5082652;28;20032;-82
2024/01/16 06:30:49;;;;;;;1.40;1.30;;;-3.70;99.90;;;;;;5083667;28;20028;-83
2024/01/16 06:33:15;;;;;;;0.28;0.28;;;-3.70;99.90;;;;;;5080081;28;20055;-79
2024/01/16 06:35:41;;;;;;;2.38;1.10;;;-3.60;1.00;;;;;;5077534;28;20039;-82
2024/01/16 06:38:07;;;;;;;1.75;1.65;;;-3.60;1.00;;;;;;5080648;28;20477;-82
2024/01/16 06:40:34;;;;;;;0.47;0.30;;;-3.60;1.00;;;;;;5076580;28;20315;-82
2024/01/16 06:43:00;;;;;;;1.65;0.90;;;-3.60;1.00;;;;;;5079013;28;20044;-82
2024/01/16 06:45:26;;;;;;;0.75;0.75;;;-3.60;1.00;;;;;;5078983;28;20028;-82
2024/01/16 06:47:52;;;;;;;4.35;2.10;;;-3.50;1.00;;;;;;5079136;28;20055;-83
2024/01/16 06:50:19;;;;;;;0.80;0.75;;;-3.40;1.00;;;;;;5078003;28;20032;-82
2024/01/16 06:52:45;;;;;;;0.98;0.95;;;-3.40;1.00;;;;;;5079877;28;20401;-83
2024/01/16 06:55:11;;;;;;;7.13;1.20;;;-3.30;1.00;;;;;;5079585;28;20047;-81
2024/01/16 06:57:38;;;;;;;8.48;1.67;;;-3.20;1.00;;;;;;5078774;28;20036;-82
2024/01/16 07:00:07;;;;;;;0.88;0.88;;;-3.20;1.00;;;;;;5081177;28;20186;-81
2024/01/16 07:02:33;;;;;;;0.50;0.50;;;-3.10;1.00;;;;;;5081859;28;20042;-83
2024/01/16 07:04:59;;;;;;;2.10;1.95;;;-3.10;1.00;;;;;;5081376;28;20028;-83
2024/01/16 07:07:26;;;;;;;2.95;1.27;;;-3.10;99.90;;;;;;5078441;28;20028;-83
2024/01/16 07:09:52;;;;;;;1.05;0.98;;;-3.10;99.90;;;;;;5082399;28;20032;-83
2024/01/16 07:12:18;;;;;;;1.48;1.38;;;-3.10;99.90;;;;;;5077964;28;20468;-81
2024/01/16 07:14:44;;;;;;;2.75;2.55;;;-3.10;99.90;;;;;;5082579;28;20159;-80
2024/01/16 07:17:10;;;;;;;5.00;4.40;;;-3.10;99.90;;;;;;5075613;28;20039;-81
2024/01/16 07:19:37;;;;;;;4.68;4.35;;;-3.10;99.90;;;;;;5077188;28;20038;-80
2024/01/16 07:22:03;;;;;;;1.00;1.00;;;-3.10;99.90;;;;;;5081376;28;20043;-82
2024/01/16 07:24:29;;;;;;;0.65;0.65;;;-3.00;99.90;;;;;;5077862;28;20032;-83
2024/01/16 07:26:55;;;;;;;0.95;0.65;;;-3.00;99.90;;;;;;5076882;28;20045;-83
2024/01/16 07:29:21;;;;;;;0.38;0.38;;;-3.00;99.90;;;;;;5078718;28;20118;-83
2024/01/16 07:31:47;;;;;;;1.52;1.38;;;-3.00;99.90;;;;;;5084168;28;20024;-83
2024/01/16 07:34:19;;;;;;;0.40;0.40;;;-3.00;99.90;;;;;;5078766;28;20033;-82
2024/01/16 07:36:46;;;;;;;6.90;1.50;;;-2.90;99.90;;;;;;5078451;28;20424;-83
2024/01/16 07:39:12;;;;;;;1.98;1.33;;;-2.90;99.90;;;;;;5079850;28;20043;-83
2024/01/16 07:41:38;;;;;;;1.15;1.13;;;-2.90;99.90;;;;;;5079578;28;20365;-82
2024/01/16 07:44:04;;;;;;;1.10;1.02;;;-2.80;99.90;;;;;;5078718;28;20469;-82
2024/01/16 07:46:30;;;;;;;1.15;1.10;;;-2.80;99.90;;;;;;5073709;28;20360;-82
2024/01/16 07:48:56;;;;;;;0.03;0.03;;;-2.80;99.90;;;;;;5062368;28;20111;-81
2024/01/16 07:51:22;;;;;;;4.38;1.17;;;-2.80;99.90;;;;;;5078531;28;20373;-82
2024/01/16 07:54:03;;;;;;;0.95;0.95;;;-2.70;99.90;;;;;;5075449;28;20040;-83
2024/01/16 07:56:29;;;;;;;0.68;0.60;;;-2.80;99.90;;;;;;5074167;28;20032;-82
2024/01/16 07:58:56;;;;;;;0.70;0.70;;;-2.60;99.90;;;;;;5079149;28;20334;-82
2024/01/16 08:01:22;;;;;;;1.75;1.65;;;-2.60;99.90;;;;;;5080228;28;20040;-83
2024/01/16 08:03:48;;;;;;;1.95;1.77;;;-2.50;99.90;;;;;;5088167;28;20039;-82
2024/01/16 08:06:14;;;;;;;0.65;0.65;;;-2.50;99.90;;;;;;5091596;28;20036;-83
2024/01/16 08:08:41;;;;;;;1.48;0.63;;;-2.40;99.90;;;;;;5086577;28;20029;-82
2024/01/16 08:11:07;;;;;;;1.90;1.55;;;-2.30;99.90;;;;;;5059497;28;20044;-80
2024/01/16 08:13:33;;;;;;;3.40;2.47;;;-2.20;99.90;;;;;;5080708;28;20041;-80
2024/01/16 08:16:00;;;;;;;3.28;1.80;;;-2.20;99.90;;;;;;5075215;28;20037;-82
2024/01/16 08:18:26;;;;;;;0.85;0.85;;;-2.10;99.90;;;;;;5077411;28;20047;-82
2024/01/16 08:20:52;;;;;;;0.80;0.60;;;-2.00;99.90;;;;;;5074593;28;20036;-82
2024/01/16 08:23:21;;;;;;;0.47;0.43;;;-2.00;99.90;;;;;;5090221;28;20051;-80
2024/01/16 08:25:47;;;;;;;1.52;1.42;;;-1.90;99.90;;;;;;5082438;28;20031;-81
2024/01/16 08:28:14;;;;;;;1.25;1.23;;;-1.90;99.90;;;;;;5088958;28;20059;-81
2024/01/16 08:30:40;;;;;;;0.47;0.47;;;-1.80;99.90;;;;;;5082936;28;20362;-82
2024/01/16 08:33:07;;;;;;;0.98;0.98;;;-1.80;99.90;;;;;;5082735;28;20036;-82
2024/01/16 08:35:33;;;;;;;0.95;0.95;;;-1.80;99.90;;;;;;5082788;28;20500;-82
2024/01/16 08:37:59;;;;;;;1.77;1.27;;;-1.80;99.90;;;;;;5062838;28;20486;-82
2024/01/16 08:40:25;;;;;;;0.82;0.57;;;-1.80;99.90;;;;;;5060793;28;20051;-83
2024/01/16 08:42:54;;;;;;;3.40;1.40;;;-1.70;99.90;;;;;;5060341;28;20048;-82
2024/01/16 08:45:21;;;;;;;5.43;0.75;;;-1.70;99.90;;;;;;5062351;28;20359;-82
2024/01/16 08:47:48;;;;;;;1.90;1.77;;;-1.70;99.90;;;;;;5061205;28;20033;-82
2024/01/16 08:50:14;;;;;;;1.52;1.42;;;-1.60;99.90;;;;;;5062236;28;20029;-79
2024/01/16 08:52:40;;;;;;;2.75;2.05;;;-1.70;98.00;;;;;;5060010;28;20458;-81
2024/01/16 08:55:07;;;;;;;1.90;1.80;;;-1.60;93.90;;;;;;5065331;28;20035;-83
2024/01/16 08:57:33;;;;;;;1.02;1.02;;;-1.50;91.90;;;;;;5065778;28;20382;-82
2024/01/16 08:59:59;;;;;;;0.88;0.82;;;-1.50;80.90;;;;;;5041827;28;20045;-83
2024/01/16 09:02:28;;;;;;;0.73;0.70;;;-1.40;62.40;;;;;;5060427;28;20044;-82
2024/01/16 09:04:55;;;;;;;1.00;0.93;;;-1.40;52.10;;;;;;5062666;28;20032;-82
2024/01/16 09:07:21;;;;;;;1.50;1.23;;;-1.40;28.60;;;;;;5062411;28;20051;-81
2024/01/16 09:09:47;;;;;;;1.23;0.98;;;-1.30;25.70;;;;;;5061047;28;20029;-79
2024/01/16 09:12:13;;;;;;;2.92;1.77;;;-1.30;14.10;;;;;;5059664;28;20029;-82
2024/01/16 09:14:41;;;;;;;1.13;1.02;;;-1.20;8.90;;;;;;5062560;28;20029;-82
2024/01/16 09:17:07;;;;;;;0.60;0.55;;;-1.20;3.30;;;;;;5061355;28;20041;-80
2024/01/16 09:19:33;;;;;;;2.20;2.08;;;-1.10;1.00;;;;;;5060337;28;20024;-81
2024/01/16 09:22:00;;;;;;;0.45;0.43;;;-1.10;1.00;;;;;;5060617;28;20040;-80
2024/01/16 09:24:26;;;;;;;0.20;0.20;;;-1.00;1.00;;;;;;5064900;28;20469;-81
2024/01/16 09:26:52;;;;;;;0.57;0.57;;;-1.00;1.00;;;;;;5068156;28;20044;-81
2024/01/16 09:29:18;;;;;;;2.03;1.40;;;-1.00;1.00;;;;;;5062711;28;20033;-82
2024/01/16 09:31:44;;;;;;;0.82;0.80;;;-0.90;1.00;;;;;;5059776;28;20036;-82
2024/01/16 09:34:13;;;;;;;1.20;1.10;;;-0.90;1.00;;;;;;5060535;28;20029;-82
2024/01/16 09:36:39;;;;;;;3.17;1.17;;;-0.90;1.00;;;;;;5065993;28;20508;-81
2024/01/16 09:39:08;;;;;;;4.35;3.38;;;-0.90;1.00;;;;;;5061821;28;20029;-81
2024/01/16 09:41:38;;;;;;;3.53;3.28;;;-0.90;1.00;;;;;;5058330;28;20029;-81
2024/01/16 09:44:05;;;;;;;29.73;24.55;;;-0.80;1.00;;;;;;5060696;28;20041;-82
2024/01/16 09:46:31;;;;;;;15.85;14.35;;;-0.90;1.00;;;;;;5058586;28;20037;-82
2024/01/16 09:48:59;;;;;;;5.75;3.03;;;-0.80;1.00;;;;;;5061129;28;20458;-82
2024/01/16 09:51:26;;;;;;;3.05;2.88;;;-0.80;1.00;;;;;;5063979;28;20492;-80
2024/01/16 09:53:52;;;;;;;2.00;1.90;;;-0.70;1.00;;;;;;5053238;28;20044;-81
2024/01/16 09:56:24;;;;;;;0.15;0.13;;;-0.70;1.00;;;;;;5060188;28;20037;-81
2024/01/16 09:58:58;;;;;;;0.50;0.50;;;-0.60;1.00;;;;;;5066255;28;20029;-82
2024/01/16 10:01:27;;;;;;;0.17;0.17;;;-0.50;1.00;;;;;;5057215;28;20032;-82
2024/01/16 10:03:53;;;;;;;0.57;0.57;;;-0.50;1.00;;;;;;5062764;28;20043;-81
2024/01/16 10:06:20;;;;;;;1.83;1.45;;;-0.50;99.90;;;;;;5052910;28;20025;-78
2024/01/16 10:08:47;;;;;;;1.02;0.95;;;-0.40;99.90;;;;;;5052293;28;20037;-82
2024/01/16 10:11:13;;;;;;;0.47;0.47;;;-0.40;99.90;;;;;;5063175;28;20059;-81
2024/01/16 10:13:41;;;;;;;3.40;2.88;;;-0.30;99.90;;;;;;5061771;28;20504;-82
2024/01/16 10:16:07;;;;;;;2.22;2.13;;;-0.30;99.90;;;;;;5067024;28;20033;-82
2024/01/16 10:18:37;;;;;;;3.35;0.50;;;-0.30;99.90;;;;;;5064624;28;20025;-82
2024/01/16 10:21:04;;;;;;;0.32;0.32;;;-0.20;99.90;;;;;;5062120;28;20354;-82
2024/01/16 10:23:34;;;;;;;0.30;0.25;;;-0.20;99.90;;;;;;5060402;28;20505;-81
2024/01/16 10:26:11;;;;;;;2.17;1.77;;;-0.10;99.90;;;;;;5057018;28;20036;-82
2024/01/16 10:28:42;;;;;;;1.27;1.20;;;-0.10;99.90;;;;;;5055901;28;20041;-77
2024/01/16 10:31:11;;;;;;;1.08;0.60;;;0.00;99.90;;;;;;5058708;28;20378;-81
2024/01/16 10:33:39;;;;;;;1.95;1.70;;;0.00;99.90;;;;;;5062661;28;20041;-81
2024/01/16 10:36:10;;;;;;;1.48;1.38;;;0.10;99.90;;;;;;5064115;28;20044;-82
2024/01/16 10:38:38;;;;;;;4.15;2.13;;;0.20;99.90;;;;;;5096605;28;20036;-77
2024/01/16 10:41:06;;;;;;;5.68;4.10;;;0.20;99.90;;;;;;5102809;28;20036;-81
2024/01/16 10:43:32;;;;;;;4.75;4.30;;;0.20;99.90;;;;;;5092849;28;20036;-82
2024/01/16 10:46:14;;;;;;;8.38;2.85;;;0.20;99.90;;;;;;5079882;28;20039;-81
2024/01/16 10:48:43;;;;;;;19.30;13.68;;;0.20;99.90;;;;;;5077253;28;20031;-80
2024/01/16 10:51:13;;;;;;;5.38;4.93;;;0.20;99.90;;;;;;5073075;28;20059;-80
2024/01/16 10:53:44;;;;;;;1.65;1.55;;;0.30;99.90;;;;;;5080558;28;20342;-82
2024/01/16 10:56:12;;;;;;;1.95;1.85;;;0.30;99.90;;;;;;5082727;28;20040;-81
2024/01/16 10:58:42;;;;;;;2.30;0.90;;;0.30;99.90;;;;;;5077202;28;20101;-81
2024/01/16 11:01:17;;;;;;;0.85;0.85;;;0.40;99.90;;;;;;5077815;28;20043;-81
2024/01/16 11:03:47;;;;;;;1.95;1.77;;;0.50;99.90;;;;;;5077960;28;20405;-82
2024/01/16 11:06:16;;;;;;;0.30;0.30;;;0.50;99.90;;;;;;5083670;28;20040;-83
2024/01/16 11:08:45;;;;;;;1.48;1.38;;;0.50;99.90;;;;;;5080971;28;20580;-82
2024/01/16 11:11:13;;;;;;;0.47;0.47;;;0.50;99.90;;;;;;5075478;28;20374;-82
2024/01/16 11:13:41;;;;;;;6.93;1.13;;;0.60;99.90;;;;;;5080132;28;20107;-82
2024/01/16 11:16:10;;;;;;;0.57;0.38;;;0.70;99.90;;;;;;5080040;28;20028;-81
2024/01/16 11:18:36;;;;;;;3.53;2.40;;;0.70;99.90;;;;;;5079293;28;20028;-82
2024/01/16 11:21:09;;;;;;;2.28;1.17;;;0.70;99.90;;;;;;5077684;28;20361;-83
2024/01/16 11:23:37;;;;;;;3.00;1.00;;;0.60;92.40;;;;;;5064919;28;20035;-81
2024/01/16 11:26:30;;;;;;;0.82;0.82;;;0.70;75.00;;;;;;5078705;28;20040;-81
2024/01/16 11:28:56;;;;;;;0.50;0.50;;;0.70;58.00;;;;;;5079202;28;20037;-81
2024/01/16 11:31:35;;;;;;;12.10;8.02;;;0.70;66.10;;;;;;5077424;28;20040;-82
2024/01/16 11:34:02;;;;;;;5.35;4.88;;;0.70;61.00;;;;;;5076181;28;20048;-82
2024/01/16 11:37:02;;;;;;;1.98;1.80;;;0.70;48.10;;;;;;5080688;28;20048;-80
2024/01/16 11:39:28;;;;;;;1.67;1.33;;;0.60;41.40;;;;;;5027311;28;20047;-78
2024/01/16 11:41:59;;;;;;;1.02;1.02;;;0.60;35.80;;;;;;5076178;28;20032;-81
2024/01/16 11:44:50;;;;;;;1.88;1.73;;;0.60;17.90;;;;;;5080905;28;20036;-80
2024/01/16 11:47:16;;;;;;;6.53;2.75;;;0.60;13.10;;;;;;5081840;28;20028;-80
2024/01/16 11:49:42;;;;;;;1.45;1.35;;;0.60;10.90;;;;;;5077351;28;20028;-80
2024/01/16 11:52:11;;;;;;;1.45;1.00;;;0.70;6.70;;;;;;5078678;28;20028;-80
2024/01/16 11:54:37;;;;;;;1.25;1.17;;;0.70;6.80;;;;;;5078650;28;20037;-81
2024/01/16 11:57:27;;;;;;;0.82;0.70;;;0.80;1.00;;;;;;5080076;28;20477;-81
2024/01/16 12:00:01;;;;;;;1.77;0.57;;;0.90;1.30;;;;;;5079396;28;20036;-79
2024/01/16 12:02:48;;;;;;;2.10;2.00;;;0.90;1.00;;;;;;5060644;28;20392;-79
2024/01/16 12:05:15;;;;;;;0.82;0.82;;;1.00;1.00;;;;;;5079977;28;20028;-80
2024/01/16 12:07:50;;;;;;;1.00;1.00;;;0.90;1.00;;;;;;5077611;28;20519;-80
2024/01/16 12:10:21;;;;;;;2.05;1.25;;;0.90;1.00;;;;;;5079112;28;20047;-81
2024/01/16 12:12:49;;;;;;;1.20;0.88;;;0.90;1.00;;;;;;5076298;28;20488;-80
2024/01/16 12:15:20;;;;;;;1.33;1.23;;;0.90;1.00;;;;;;5077566;28;20373;-81
2024/01/16 12:17:59;;;;;;;0.57;0.57;;;0.80;1.00;;;;;;5078604;28;20048;-82
2024/01/16 12:20:28;;;;;;;0.22;0.22;;;0.90;1.00;;;;;;5080080;28;20477;-79
2024/01/16 12:23:03;;;;;;;3.38;2.88;;;1.00;1.00;;;;;;5087925;28;20033;-81
2024/01/16 12:25:31;;;;;;;4.72;1.77;;;1.10;1.00;;;;;;5082487;28;20048;-77
2024/01/16 12:28:05;;;;;;;0.75;0.50;;;1.20;1.00;;;;;;5084814;28;20028;-80
2024/01/16 12:30:36;;;;;;;1.88;1.35;;;1.30;1.00;;;;;;5078193;28;20032;-80
2024/01/16 12:33:12;;;;;;;0.63;0.63;;;1.40;1.00;;;;;;5079154;28;20524;-81
2024/01/16 12:35:40;;;;;;;1.67;1.58;;;1.40;1.00;;;;;;5081331;28;20036;-81
2024/01/16 12:38:10;;;;;;;0.57;0.57;;;1.50;1.00;;;;;;5057098;28;20071;-80
2024/01/16 12:40:43;;;;;;;1.00;0.97;;;1.60;1.00;;;;;;5058141;28;20036;-81
2024/01/16 12:43:10;;;;;;;2.00;1.35;;;1.60;1.00;;;;;;5059854;28;20264;-80
2024/01/16 12:45:36;;;;;;;4.40;3.65;;;1.80;1.00;;;;;;5059183;28;20036;-81
2024/01/16 12:48:05;;;;;;;2.85;2.60;;;1.90;99.90;;;;;;5055923;28;20041;-81
2024/01/16 12:50:32;;;;;;;8.07;2.80;;;1.90;99.90;;;;;;5058485;28;20377;-81
2024/01/16 12:53:08;;;;;;;5.90;4.47;;;1.90;99.90;;;;;;5059470;28;20386;-81
2024/01/16 12:55:39;;;;;;;2.33;2.13;;;2.00;99.90;;;;;;5061445;28;20473;-79